Leaf River, IL (61047)

10:46 AM CDT on July 29, 2016 (GMT -0500)
wind swept valley | | Change Station

Elev 810 ft 42.25 °N, 89.55 °W | Updated 8 minutes ago

Overcast
Overcast
72.3 °F
Feels Like 71 °F
N
4.2
Wind Variable Wind from ENE

Today
High -- | Low -- °F
--% Chance of Precip.
Yesterday
High -- | Low -- °F
Precip. -- in
Pressure 29.99 in
Visibility 10.0 miles
Clouds Overcast 800 ft
Heat Index 71 °F
Dew Point 68 °F
Humidity 85%
Rainfall 0.00 in
Snow Depth Not available.
5:48 AM 8:19 PM
Waning Crescent, 21% visible
METAR KFEP 291535Z AUTO 06004KT 10SM OVC008 21/19 A2999 RMK AO2 T02130193
Pressure 29.99 in
Visibility 10.0 miles
Clouds Overcast 800 ft
Heat Index 71 °F
Dew Point 68 °F
Humidity 85%
Rainfall 0.00 in
Snow Depth Not available.
5:48 AM 8:19 PM
Waning Crescent, 21% visible
METAR KFEP 291535Z AUTO 06004KT 10SM OVC008 21/19 A2999 RMK AO2 T02130193

10-Day Weather Forecast

Almanac

Astronomy

Jul. 29, 2016 Rise Set
Actual Time
Civil Twilight
Nautical Twilight
Astronomical Twilight
Moon
Length of Visible Light
Length of Day
Tomorrow will be .
, % of the Moon is Illuminated

Today's Extremes

State Highs State Lows

Community

WunderPhotos

Upload Photos

1,928,348 photos uploaded!

WunderBlog® & News

Nearby

Air Quality

  Air Quality AQ Index Pollutant
Not available.

Snow Depth

Station Depth Elevation

Earthquake Activity

City Distance Mag. Time & Date
Minimum magnitude displayed is 2.5.

Coastal Water Temperatures

Place Temperature

Stations

Nearby Weather Stations

Station Location Temp. Windchill Dew Point Humidity Wind Precip. Elev Updated Type
                   

Watches & Warnings

There are currently no watches in effect.